Time;durP1;ratioP1;P1;durP2;ratioP2;P2;SDS_P1;SDS_P2;PMS_P1;PMS_P2;Temp;Humidity;BMP_temperature;BMP_pressure;BME280_temperature;BME280_humidity;BME280_pressure;Samples;Min_cycle;Max_cycle;Signal;HPM_P1;HPM_P2
2022/12/24 00:00:56;;;;;;;24.50;12.82;;;;;;;6.34;66.95;99141.06;7725746;32;39215;-89
2022/12/24 00:05:12;;;;;;;26.60;14.55;;;;;;;6.37;66.98;99143.28;7738042;32;39716;-87
2022/12/24 00:09:28;;;;;;;26.05;14.85;;;;;;;6.39;66.60;99155.47;7737803;32;37695;-89
2022/12/24 00:13:45;;;;;;;27.02;14.27;;;;;;;6.41;66.20;99135.44;7737805;32;37076;-88
2022/12/24 00:18:01;;;;;;;27.13;14.45;;;;;;;6.02;67.78;99147.34;7737926;32;40083;-89
2022/12/24 00:22:18;;;;;;;25.42;14.57;;;;;;;6.21;67.35;99131.53;7738040;32;40894;-89
2022/12/24 00:26:34;;;;;;;27.48;14.70;;;;;;;6.26;67.25;99112.59;7738166;32;37901;-88
2022/12/24 00:30:50;;;;;;;76.85;15.95;;;;;;;5.97;68.23;99117.53;7741329;32;37205;-87
2022/12/24 00:35:07;;;;;;;29.83;15.82;;;;;;;5.70;69.30;99141.84;7741619;32;39171;-88
2022/12/24 00:39:23;;;;;;;29.27;15.10;;;;;;;5.88;68.71;99127.13;7736863;32;40343;-88
2022/12/24 00:43:39;;;;;;;25.75;14.40;;;;;;;6.25;67.60;99123.69;7737562;32;37869;-88
2022/12/24 00:47:55;;;;;;;126.60;18.15;;;;;;;6.38;67.26;99109.69;7737703;32;37327;-88
2022/12/24 00:52:12;;;;;;;42.30;15.15;;;;;;;6.01;68.28;99138.38;7737225;32;39438;-89
2022/12/24 00:56:28;;;;;;;22.33;12.88;;;;;;;6.05;67.91;99132.47;7737293;32;39855;-89
2022/12/24 01:00:44;;;;;;;28.77;14.90;;;;;;;6.35;67.22;99110.22;7737036;32;37777;-89
2022/12/24 01:05:09;;;;;;;26.73;14.00;;;;;;;6.27;67.43;99097.97;7736873;32;37177;-88
2022/12/24 01:09:26;;;;;;;28.30;14.80;;;;;;;6.01;68.31;99103.19;7736928;32;39380;-87
2022/12/24 01:13:42;;;;;;;34.28;15.30;;;;;;;6.00;68.47;99088.06;7736956;32;40793;-88
2022/12/24 01:17:58;;;;;;;27.08;14.70;;;;;;;6.18;68.04;99081.41;7736919;32;37999;-89
2022/12/24 01:22:14;;;;;;;26.60;14.80;;;;;;;6.42;67.19;99081.03;7736608;32;37287;-88
2022/12/24 01:26:30;;;;;;;28.67;15.38;;;;;;;6.30;67.78;99073.09;7736432;32;39937;-89
2022/12/24 01:30:48;;;;;;;25.55;14.52;;;;;;;6.22;68.23;99073.59;7736205;32;40581;-88
2022/12/24 01:35:04;;;;;;;28.23;15.38;;;;;;;6.47;68.04;99091.06;7736184;32;37877;-89
2022/12/24 01:39:20;;;;;;;42.53;16.23;;;;;;;6.54;67.65;99080.84;7736102;32;36967;-89
2022/12/24 01:43:37;;;;;;;31.80;15.32;;;;;;;6.50;67.68;99079.72;7735783;32;39970;-89
2022/12/24 01:47:53;;;;;;;169.77;21.65;;;;;;;6.61;67.17;99059.75;7735512;32;39872;-89
2022/12/24 01:52:22;;;;;;;31.45;14.70;;;;;;;6.33;67.94;99064.47;7738507;32;38669;-89
2022/12/24 01:56:46;;;;;;;186.90;20.92;;;;;;;6.23;68.44;99091.47;7727199;32;37319;-89
2022/12/24 02:01:03;;;;;;;63.63;17.80;;;;;;;6.00;68.66;99088.06;7726126;32;40043;-90
2022/12/24 02:05:39;;;;;;;30.88;15.30;;;;;;;5.87;69.52;99083.03;7739081;32;40557;-88
2022/12/24 02:10:00;;;;;;;159.85;20.67;;;;;;;6.27;68.16;99075.53;7727612;32;38045;-89
2022/12/24 02:14:17;;;;;;;94.97;17.65;;;;;;;6.15;68.50;99090.03;7739583;32;37168;-88
2022/12/24 02:18:37;;;;;;;155.10;20.08;;;;;;;6.08;68.46;99083.25;7739734;32;39488;-89
2022/12/24 02:23:51;;;;;;;43.35;15.57;;;;;;;5.99;68.98;99099.94;7739311;32;39884;-87
2022/12/24 02:28:12;;;;;;;33.53;16.33;;;;;;;6.18;68.53;99116.59;7705055;32;37766;-89
2022/12/24 02:32:31;;;;;;;131.35;19.45;;;;;;;6.56;67.36;99116.59;7725908;32;37193;-87
2022/12/24 02:37:14;;;;;;;32.28;15.75;;;;;;;6.38;67.78;99117.81;7739257;32;39403;-89
2022/12/24 02:46:26;;;;;;;30.48;15.75;;;;;;;6.43;67.51;99117.03;7739302;32;38393;-88
2022/12/24 02:51:02;;;;;;;32.67;16.48;;;;;;;6.33;68.01;99120.47;7726118;32;37233;-87
2022/12/24 02:55:26;;;;;;;31.25;15.85;;;;;;;6.27;68.24;99125.06;7738902;32;39260;-89
2022/12/24 03:00:06;;;;;;;29.50;15.23;;;;;;;6.44;67.74;99121.38;7738791;32;39701;-88
2022/12/24 03:04:45;;;;;;;28.30;16.12;;;;;;;6.54;67.52;99113.31;7737894;32;37639;-89
2022/12/24 03:09:12;;;;;;;28.38;15.25;;;;;;;6.39;68.18;99112.13;7738762;32;37154;-90
2022/12/24 03:13:29;;;;;;;27.48;14.87;;;;;;;6.43;67.75;99095.38;7725931;32;39917;-88
2022/12/24 03:17:48;;;;;;;25.27;14.10;;;;;;;6.36;67.93;99074.78;7724872;32;39975;-88
2022/12/24 03:22:08;;;;;;;28.83;15.88;;;;;;;6.45;67.56;99076.97;7738424;32;37770;-89
2022/12/24 03:26:25;;;;;;;30.45;16.80;;;;;;;6.29;67.80;99090.41;7725189;32;37135;-88
2022/12/24 03:30:43;;;;;;;30.83;16.65;;;;;;;6.26;68.55;99096.38;7738550;32;39394;-88
2022/12/24 03:34:59;;;;;;;28.38;14.20;;;;;;;6.30;68.14;99108.28;7724760;32;39905;-88
2022/12/24 03:39:15;;;;;;;65.15;17.35;;;;;;;6.50;67.50;99101.37;7738316;32;38669;-88
2022/12/24 03:43:32;;;;;;;174.02;20.08;;;;;;;6.06;68.49;99120.56;7737962;32;37408;-88
2022/12/24 03:47:48;;;;;;;58.70;16.55;;;;;;;6.11;68.45;99126.03;7739598;32;39099;-87
2022/12/24 03:52:05;;;;;;;74.57;18.83;;;;;;;6.14;68.33;99123.63;7739220;32;40579;-88
2022/12/24 03:56:21;;;;;;;35.55;16.37;;;;;;;6.33;67.92;99134.84;7737862;32;37947;-88
2022/12/24 04:00:37;;;;;;;30.77;16.67;;;;;;;6.34;67.95;99131.06;7738130;32;37488;-89
2022/12/24 04:04:54;;;;;;;32.83;16.62;;;;;;;6.57;67.19;99123.63;7738184;32;40070;-89
2022/12/24 04:09:10;;;;;;;35.63;17.62;;;;;;;6.44;67.51;99137.63;7738077;32;40754;-88
2022/12/24 04:13:26;;;;;;;34.13;17.10;;;;;;;6.45;67.57;99140.09;7737608;32;37805;-88
2022/12/24 04:17:42;;;;;;;32.05;16.23;;;;;;;6.49;67.16;99137.66;7738007;32;37218;-88
2022/12/24 04:21:59;;;;;;;28.50;15.68;;;;;;;6.46;67.20;99135.47;7737886;32;39353;-89
2022/12/24 04:26:15;;;;;;;31.08;15.25;;;;;;;6.57;66.68;99131.75;7737496;32;40815;-88
2022/12/24 04:30:31;;;;;;;30.10;15.43;;;;;;;6.45;66.93;99125.72;7737662;32;37798;-88
2022/12/24 04:34:47;;;;;;;25.30;14.63;;;;;;;6.52;66.63;99126.28;7737525;32;37288;-89
2022/12/24 04:39:04;;;;;;;29.35;15.70;;;;;;;6.42;66.62;99115.44;7737511;32;40098;-88
2022/12/24 04:43:20;;;;;;;26.85;15.00;;;;;;;6.65;66.21;99125.84;7737521;32;39696;-88
2022/12/24 04:47:36;;;;;;;36.92;18.00;;;;;;;6.49;67.14;99126.84;7737231;32;37680;-88
2022/12/24 04:51:52;;;;;;;28.48;15.98;;;;;;;6.79;66.72;99139.72;7737436;32;38083;-89
2022/12/24 04:56:16;;;;;;;27.50;16.05;;;;;;;6.77;67.00;99150.03;7737191;32;39165;-88
2022/12/24 05:00:33;;;;;;;31.23;17.15;;;;;;;6.71;68.26;99137.50;7737093;32;39721;-88
2022/12/24 05:04:49;;;;;;;26.48;16.20;;;;;;;6.68;68.55;99147.00;7736414;32;37782;-87
2022/12/24 05:09:05;;;;;;;28.02;15.38;;;;;;;7.14;67.16;99141.81;7737068;32;36850;-89
2022/12/24 05:13:21;;;;;;;28.98;15.98;;;;;;;7.24;66.89;99153.75;7736580;32;39483;-88
2022/12/24 05:17:38;;;;;;;27.35;15.40;;;;;;;7.11;68.13;99147.75;7736704;32;40024;-89
2022/12/24 05:26:54;;;;;;;26.90;15.10;;;;;;;7.45;68.19;99155.47;7712441;32;38518;-89
2022/12/24 05:31:11;;;;;;;29.70;16.20;;;;;;;7.44;68.62;99153.84;7727608;32;38985;-89
2022/12/24 05:35:27;;;;;;;29.10;15.32;;;;;;;7.67;68.39;99154.44;7739838;32;40850;-89
2022/12/24 05:39:43;;;;;;;26.05;15.43;;;;;;;7.66;68.86;99152.81;7739783;32;37833;-88
2022/12/24 05:43:59;;;;;;;27.83;15.27;;;;;;;7.76;69.14;99149.28;7739398;32;37373;-89
2022/12/24 05:48:16;;;;;;;26.08;14.95;;;;;;;7.93;68.74;99154.47;7739146;32;40022;-90
2022/12/24 05:52:32;;;;;;;25.85;15.40;;;;;;;7.96;69.41;99143.09;7739638;32;40862;-89
2022/12/24 05:56:48;;;;;;;27.48;15.63;;;;;;;7.46;71.87;99146.25;7739429;32;38997;-88
2022/12/24 06:01:05;;;;;;;25.15;14.23;;;;;;;7.72;71.27;99143.59;7739726;32;37039;-88
2022/12/24 06:05:21;;;;;;;25.85;14.70;;;;;;;8.16;69.89;99147.69;7739484;32;40153;-90
2022/12/24 06:09:38;;;;;;;25.05;14.60;;;;;;;8.21;69.77;99158.56;7739440;32;40147;-88
2022/12/24 06:13:54;;;;;;;22.17;13.20;;;;;;;8.16;69.61;99159.38;7725290;32;37854;-89
2022/12/24 06:18:10;;;;;;;23.65;12.95;;;;;;;8.11;69.34;99175.69;7725467;32;36960;-88
2022/12/24 06:22:27;;;;;;;23.58;11.60;;;;;;;8.03;70.80;99185.16;7739764;32;37220;-90
2022/12/24 06:26:43;;;;;;;31.23;12.80;;;;;;;7.64;72.81;99180.22;7738735;32;40775;-88
2022/12/24 06:31:02;;;;;;;40.78;22.52;;;;;;;7.80;72.97;99182.97;7735766;32;37873;-88
2022/12/24 06:35:18;;;;;;;28.17;15.60;;;;;;;8.05;72.23;99195.75;7738799;32;37025;-89
2022/12/24 06:39:35;;;;;;;20.85;12.57;;;;;;;8.26;71.38;99191.97;7738251;32;39196;-88
2022/12/24 06:43:52;;;;;;;24.67;13.30;;;;;;;8.23;71.55;99192.50;7738881;32;40753;-89
2022/12/24 06:48:09;;;;;;;18.87;11.75;;;;;;;8.40;70.40;99208.53;7738891;32;37714;-89
2022/12/24 06:52:25;;;;;;;22.35;14.68;;;;;;;8.38;70.27;99223.47;7725562;32;37554;-89
2022/12/24 06:56:41;;;;;;;24.60;14.25;;;;;;;8.31;71.22;99214.78;7740468;32;39337;-89
2022/12/24 07:00:59;;;;;;;21.23;11.73;;;;;;;7.99;72.86;99230.22;7740656;32;39889;-84
2022/12/24 07:05:15;;;;;;;20.92;11.73;;;;;;;7.76;75.01;99236.13;7741568;32;36935;-87
2022/12/24 07:09:31;;;;;;;21.10;12.57;;;;;;;8.30;72.81;99240.31;7738967;32;37208;-86
2022/12/24 07:13:48;;;;;;;31.85;17.20;;;;;;;8.17;73.35;99239.75;7738958;32;39413;-85
2022/12/24 07:18:04;;;;;;;22.83;13.62;;;;;;;8.24;72.87;99234.88;7738166;32;40755;-87
2022/12/24 07:22:20;;;;;;;22.40;11.82;;;;;;;7.80;74.57;99248.91;7712276;32;38640;-89
2022/12/24 07:26:36;;;;;;;180.40;65.62;;;;;;;8.55;71.71;99240.34;7712213;32;38051;-87
2022/12/24 07:30:53;;;;;;;48.25;21.15;;;;;;;8.26;72.99;99253.59;7711886;32;39625;-85
2022/12/24 07:35:09;;;;;;;33.58;18.25;;;;;;;8.26;73.05;99250.88;7711645;32;39852;-87
2022/12/24 07:39:26;;;;;;;23.90;13.40;;;;;;;8.00;72.84;99255.47;7711594;32;37893;-78
2022/12/24 07:43:42;;;;;;;24.50;13.23;;;;;;;8.46;72.62;99250.94;7711530;32;37199;-77
2022/12/24 07:47:58;;;;;;;20.88;11.40;;;;;;;8.42;72.02;99259.88;7734497;32;39404;-70
2022/12/24 07:52:14;;;;;;;21.70;11.35;;;;;;;8.36;72.86;99269.09;7737887;32;40828;-84
2022/12/24 07:56:31;;;;;;;21.77;11.30;;;;;;;8.52;71.75;99278.94;7738164;32;37768;-84
2022/12/24 08:00:47;;;;;;;20.60;11.20;;;;;;;8.40;72.19;99289.19;7737960;32;37953;-82
2022/12/24 08:05:04;;;;;;;24.17;13.13;;;;;;;8.69;70.72;99299.59;7738006;32;39260;-83
2022/12/24 08:09:21;;;;;;;20.58;11.95;;;;;;;8.77;70.63;99304.50;7737763;32;39745;-85
2022/12/24 08:13:37;;;;;;;21.33;11.95;;;;;;;9.21;68.57;99304.72;7737166;32;37797;-86
2022/12/24 08:17:53;;;;;;;16.87;10.48;;;;;;;9.35;68.11;99307.69;7737550;32;38198;-87
2022/12/24 08:22:10;;;;;;;18.85;11.30;;;;;;;9.20;69.14;99300.37;7737601;32;39432;-87
2022/12/24 08:26:26;;;;;;;17.20;10.00;;;;;;;8.86;70.80;99316.44;7737651;32;40026;-87
2022/12/24 08:30:42;;;;;;;16.23;9.18;;;;;;;8.99;70.54;99329.50;7736974;32;37909;-84
2022/12/24 08:34:58;;;;;;;17.73;9.90;;;;;;;9.27;69.52;99349.06;7716983;32;167611;-83
2022/12/24 08:39:15;;;;;;;16.52;9.75;;;;;;;9.36;69.08;99355.56;7726551;32;39110;-85
2022/12/24 08:43:31;;;;;;;16.02;9.57;;;;;;;9.41;69.59;99349.31;7737282;32;39853;-86
2022/12/24 08:47:47;;;;;;;22.20;13.15;;;;;;;9.69;68.31;99358.78;7737432;32;37909;-84
2022/12/24 08:52:03;;;;;;;16.08;9.45;;;;;;;9.80;67.50;99364.19;7717279;32;37213;-84
2022/12/24 08:56:19;;;;;;;17.33;9.75;;;;;;;9.77;67.60;99365.56;7710277;32;39411;-87
2022/12/24 09:00:36;;;;;;;18.37;10.43;;;;;;;9.72;68.24;99373.72;7726581;32;40813;-88
2022/12/24 09:04:53;;;;;;;19.17;11.12;;;;;;;10.13;67.00;99381.78;7736245;32;38774;-89
2022/12/24 09:09:09;;;;;;;16.70;8.80;;;;;;;9.70;69.19;99393.06;7736708;32;37084;-90
2022/12/24 09:13:25;;;;;;;16.48;8.65;;;;;;;10.09;69.07;99389.69;7736727;32;39231;-86
2022/12/24 09:17:41;;;;;;;13.15;7.82;;;;;;;10.10;68.55;99390.50;7736480;32;40861;-82
2022/12/24 09:21:57;;;;;;;17.25;9.10;;;;;;;10.38;68.30;99413.56;7736249;32;38840;-82
2022/12/24 09:26:16;;;;;;;13.05;7.75;;;;;;;10.37;67.57;99414.66;7736384;32;37876;-84
2022/12/24 09:30:32;;;;;;;13.60;8.20;;;;;;;10.28;67.16;99413.59;7736456;32;39138;-81
2022/12/24 09:34:49;;;;;;;13.40;7.25;;;;;;;10.48;65.91;99408.06;7736172;32;40612;-85
2022/12/24 09:39:05;;;;;;;13.05;7.95;;;;;;;10.60;65.45;99412.38;7729934;32;38626;-83
2022/12/24 09:43:24;;;;;;;11.93;7.22;;;;;;;10.86;64.84;99419.28;7709755;32;37311;-83
2022/12/24 09:47:50;;;;;;;13.45;6.87;;;;;;;10.76;65.28;99419.34;7701930;32;40418;-79
2022/12/24 09:52:11;;;;;;;13.43;7.40;;;;;;;10.95;64.48;99424.97;8022200;26;39934;-80
2022/12/24 09:56:39;;;;;;;14.20;7.37;;;;;;;10.05;66.93;99415.03;7803285;32;38671;-80
2022/12/24 10:00:56;;;;;;;13.25;7.37;;;;;;;10.80;65.25;99425.88;7796934;32;37217;-81
2022/12/24 10:05:17;;;;;;;14.40;7.10;;;;;;;11.05;65.16;99432.25;7815710;32;39450;-79
2022/12/24 10:09:58;;;;;;;13.77;7.35;;;;;;;11.18;65.26;99431.63;7803046;32;39871;-79
2022/12/24 10:19:57;;;;;;;11.20;6.53;;;;;;;10.97;66.87;99430.97;7890849;31;167673;-79
2022/12/24 10:24:33;;;;;;;13.70;6.43;;;;;;;11.19;65.47;99427.81;7866751;31;39890;-81
2022/12/24 10:29:31;;;;;;;8.25;5.07;;;;;;;11.57;63.76;99438.97;7854317;31;37867;-84
2022/12/24 10:33:53;;;;;;;13.32;5.50;;;;;;;11.39;64.77;99434.19;7769798;32;37000;-83
2022/12/24 10:38:09;;;;;;;12.23;5.47;;;;;;;11.78;63.22;99449.66;7844691;31;39785;-82
2022/12/24 10:42:42;;;;;;;11.93;6.65;;;;;;;12.02;62.71;99450.56;7867718;31;40062;-81
2022/12/24 10:47:08;;;;;;;9.07;5.53;;;;;;;12.29;62.50;99449.16;7867543;31;37964;-82
2022/12/24 10:51:40;;;;;;;11.60;5.40;;;;;;;12.24;62.69;99451.13;7865861;31;35875;-81
2022/12/24 10:56:05;;;;;;;7.95;3.83;;;;;;;12.16;62.67;99442.47;7858542;31;39146;-81
2022/12/24 11:00:24;;;;;;;3.37;2.10;;;;;;;12.03;61.27;99441.25;7845617;31;40808;-82
2022/12/24 11:04:50;;;;;;;5.20;2.42;;;;;;;12.08;61.31;99448.56;7839787;31;38556;-83
2022/12/24 11:09:42;;;;;;;7.40;2.20;;;;;;;11.77;61.18;99450.78;7838435;31;36910;-81
2022/12/24 11:13:58;;;;;;;4.47;2.00;;;;;;;12.01;60.60;99467.22;7838716;32;38825;-82
2022/12/24 11:18:16;;;;;;;5.97;1.73;;;;;;;12.54;59.73;99464.44;7851611;31;38937;-82
2022/12/24 11:22:33;;;;;;;4.90;2.62;;;;;;;12.19;58.52;99484.78;7865393;31;37962;-83
2022/12/24 11:26:50;;;;;;;6.40;2.10;;;;;;;13.05;57.51;99465.66;7857768;31;37665;-84
2022/12/24 11:31:19;;;;;;;3.00;1.27;;;;;;;12.92;54.28;99480.09;7847855;31;38789;-83
2022/12/24 11:35:46;;;;;;;5.55;1.83;;;;;;;13.33;51.62;99479.50;7847564;31;39925;-82
2022/12/24 11:40:03;;;;;;;4.60;2.10;;;;;;;13.70;51.41;99481.38;7848360;31;38798;-84
2022/12/24 11:44:27;;;;;;;4.22;1.62;;;;;;;13.56;50.28;99475.03;7848005;31;37660;-82
2022/12/24 11:48:44;;;;;;;4.97;1.77;;;;;;;14.01;51.00;99463.56;7848458;31;39857;-83
2022/12/24 11:53:02;;;;;;;6.55;1.90;;;;;;;13.44;51.22;99483.72;7848276;31;39612;-82
2022/12/24 11:57:19;;;;;;;4.22;1.60;;;;;;;13.89;50.39;99475.03;7848086;31;37839;-81
2022/12/24 12:01:39;;;;;;;2.87;1.73;;;;;;;13.87;50.11;99485.47;7847261;31;37011;-83
2022/12/24 12:05:57;;;;;;;3.90;1.67;;;;;;;13.40;51.55;99485.44;7848435;31;39815;-83
2022/12/24 12:10:23;;;;;;;10.23;2.03;;;;;;;13.93;49.93;99499.91;7842176;31;39076;-83
2022/12/24 12:14:49;;;;;;;4.20;1.37;;;;;;;13.88;50.39;99506.28;7820332;32;38018;-80
2022/12/24 12:19:08;;;;;;;3.22;1.37;;;;;;;13.86;50.19;99494.81;7819262;32;37809;-84
2022/12/24 12:23:41;;;;;;;7.40;1.80;;;;;;;13.21;51.53;99498.28;7819386;32;39241;-84
2022/12/24 12:27:59;;;;;;;4.57;1.92;;;;;;;12.81;52.16;99516.88;7819171;32;40021;-83
2022/12/24 12:32:47;;;;;;;4.70;1.70;;;;;;;13.48;51.78;99509.38;7820259;32;38715;-84
2022/12/24 12:37:37;;;;;;;39.50;19.27;;;;;;;13.37;50.74;99518.88;7804006;31;36712;-80
2022/12/24 12:42:32;;;;;;;5.87;2.97;;;;;;;14.28;49.79;99518.44;7817787;32;39692;-83
2022/12/24 12:47:26;;;;;;;5.97;2.55;;;;;;;13.98;49.32;99527.22;7827063;31;40050;-83
2022/12/24 12:52:07;;;;;;;5.62;2.03;;;;;;;14.51;48.85;99543.22;7827773;31;37625;-83
2022/12/24 12:56:36;;;;;;;3.58;1.60;;;;;;;15.17;47.06;99537.50;7838444;31;36867;-86
2022/12/24 13:01:01;;;;;;;3.62;1.60;;;;;;;14.56;48.62;99562.34;7820221;32;39115;-83
2022/12/24 13:05:33;;;;;;;5.45;1.98;;;;;;;13.98;49.75;99549.94;7820052;32;40102;-84
2022/12/24 13:10:01;;;;;;;7.50;1.92;;;;;;;14.34;49.72;99559.47;7837133;31;37943;-82
2022/12/24 13:14:27;;;;;;;5.43;2.10;;;;;;;14.19;49.36;99555.06;7847345;31;36978;-82
2022/12/24 13:18:52;;;;;;;4.95;2.05;;;;;;;14.19;49.70;99568.78;7847097;31;38648;-79
2022/12/24 13:23:13;;;;;;;7.30;2.20;;;;;;;13.57;51.17;99575.25;7846471;31;40570;-83
2022/12/24 13:27:31;;;;;;;5.50;1.80;;;;;;;13.53;50.67;99588.72;7836759;31;36957;-83
2022/12/24 13:31:48;;;;;;;5.35;2.22;;;;;;;14.19;48.71;99585.22;7836449;31;37713;-83
2022/12/24 13:36:09;;;;;;;3.83;1.80;;;;;;;16.96;42.81;99567.94;7843327;31;39710;-84
2022/12/24 13:40:27;;;;;;;4.40;1.67;;;;;;;19.17;36.92;99559.81;7840001;31;39843;-83
2022/12/24 13:44:43;;;;;;;4.53;1.65;;;;;;;19.68;34.65;99560.56;7839444;31;38172;-83
2022/12/24 13:49:11;;;;;;;5.18;1.90;;;;;;;19.58;35.98;99572.03;7819345;32;36903;-81
2022/12/24 13:53:45;;;;;;;5.43;1.80;;;;;;;18.27;37.39;99567.97;7817888;32;39174;-80
2022/12/24 13:58:03;;;;;;;;;;;;;;;19.51;35.00;99572.56;7832928;31;39957;-82
2022/12/24 14:02:20;;;;;;;6.80;1.80;;;;;;;21.46;32.03;99571.69;7846746;31;38945;-81
2022/12/24 14:06:40;;;;;;;7.37;2.53;;;;;;;22.34;30.62;99577.38;7846099;31;36921;-76
2022/12/24 14:11:09;;;;;;;4.45;2.00;;;;;;;23.27;29.98;99591.97;7845267;31;39111;-76
2022/12/24 14:16:06;;;;;;;5.78;1.80;;;;;;;23.53;28.67;99603.31;7831072;31;40749;-76
2022/12/24 14:20:23;;;;;;;7.35;2.10;;;;;;;20.21;33.54;99619.84;7708674;32;37805;-76
2022/12/24 14:24:49;;;;;;;7.53;1.70;;;;;;;17.75;38.87;99632.25;7773109;31;37415;-75
2022/12/24 14:29:20;;;;;;;6.78;1.70;;;;;;;16.98;40.00;99637.28;7838771;31;39975;-74
2022/12/24 14:33:40;;;;;;;4.50;2.08;;;;;;;15.99;42.57;99658.50;7844631;31;41267;-76
2022/12/24 14:38:04;;;;;;;6.12;2.28;;;;;;;15.33;44.32;99667.91;7845474;31;38492;-78
2022/12/24 14:42:42;;;;;;;6.70;2.28;;;;;;;14.48;46.66;99672.75;7821881;31;37672;-76
2022/12/24 14:47:21;;;;;;;6.32;2.17;;;;;;;13.59;48.80;99682.59;7822235;31;40595;-76
2022/12/24 14:51:55;;;;;;;8.48;2.30;;;;;;;13.64;49.24;99684.44;7839190;31;40111;-84
2022/12/24 14:56:17;;;;;;;9.85;3.15;;;;;;;13.57;49.72;99701.25;7822016;31;38147;-83
2022/12/24 15:00:33;;;;;;;12.57;4.70;;;;;;;13.24;50.44;99703.00;7821307;31;36902;-83
2022/12/24 15:05:28;;;;;;;10.48;5.25;;;;;;;12.97;51.05;99712.59;7835956;31;39008;-81
2022/12/24 15:09:44;;;;;;;13.93;4.43;;;;;;;13.00;50.98;99717.47;7811904;31;39753;-80
2022/12/24 15:14:01;;;;;;;14.43;5.53;;;;;;;12.53;52.17;99719.84;7820695;32;37918;-80
2022/12/24 15:18:22;;;;;;;12.37;4.62;;;;;;;12.84;51.46;99732.44;7830244;31;35883;-80
2022/12/24 15:22:39;;;;;;;11.98;5.28;;;;;;;12.90;51.09;99732.09;7821941;31;39968;-81
2022/12/24 15:26:56;;;;;;;9.32;4.18;;;;;;;12.98;50.93;99730.62;7824980;31;40050;-79
2022/12/24 15:31:16;;;;;;;9.60;3.87;;;;;;;12.58;52.03;99738.94;7825252;31;37823;-82
2022/12/24 15:35:54;;;;;;;14.15;4.97;;;;;;;12.60;52.18;99741.37;7846391;31;36973;-81
2022/12/24 15:40:21;;;;;;;13.90;4.78;;;;;;;12.33;52.43;99753.62;7847689;31;38903;-81
2022/12/24 15:44:39;;;;;;;14.80;5.25;;;;;;;12.19;52.36;99758.09;7821887;31;39878;-82
2022/12/24 15:48:57;;;;;;;13.18;5.12;;;;;;;12.26;51.78;99765.97;7827992;31;40461;-81
2022/12/24 15:53:27;;;;;;;9.93;4.20;;;;;;;12.15;51.34;99755.09;7825531;31;37221;-76
2022/12/24 15:57:43;;;;;;;12.37;4.15;;;;;;;12.21;51.05;99775.00;7828699;31;38923;-80
2022/12/24 16:02:41;;;;;;;11.70;4.37;;;;;;;12.07;50.74;99774.81;7821612;31;39901;-84
2022/12/24 16:07:05;;;;;;;11.43;4.00;;;;;;;12.32;49.89;99773.84;7717122;32;37887;-82
2022/12/24 16:11:32;;;;;;;12.60;3.92;;;;;;;12.09;50.12;99785.47;7785566;31;36583;-81
2022/12/24 16:15:53;;;;;;;11.15;4.00;;;;;;;12.33;49.25;99772.78;7819311;31;39849;-80
2022/12/24 16:20:18;;;;;;;10.23;3.75;;;;;;;12.39;49.03;99795.41;7846183;31;38280;-80
2022/12/24 16:24:35;;;;;;;8.43;3.62;;;;;;;12.16;49.75;99795.00;7841523;31;37957;-80
2022/12/24 16:28:51;;;;;;;10.20;2.95;;;;;;;12.27;48.79;99801.22;7834325;31;37067;-76
2022/12/24 16:33:17;;;;;;;7.45;2.90;;;;;;;12.16;49.34;99800.47;7819539;32;38593;-77
2022/12/24 16:37:33;;;;;;;6.18;2.40;;;;;;;12.39;48.51;99796.22;7818294;32;40754;-77
2022/12/24 16:46:33;;;;;;;8.68;2.33;;;;;;;11.84;50.37;99811.78;7820730;31;37613;-82
2022/12/24 16:50:51;;;;;;;5.03;2.42;;;;;;;11.79;50.41;99822.75;7831138;31;39900;-75
2022/12/24 16:55:08;;;;;;;5.07;2.20;;;;;;;11.76;50.41;99818.66;7846250;31;38560;-80
2022/12/24 16:59:24;;;;;;;10.13;2.80;;;;;;;11.72;50.54;99816.75;7820461;31;38424;-79
2022/12/24 17:03:41;;;;;;;7.62;2.58;;;;;;;11.85;50.16;99818.91;7824555;31;36976;-78
2022/12/24 17:08:00;;;;;;;11.93;3.00;;;;;;;11.53;50.87;99825.56;7832675;31;38748;-77
2022/12/24 17:12:16;;;;;;;20.50;9.90;;;;;;;11.40;51.39;99826.13;7820214;31;40853;-79
2022/12/24 17:16:33;;;;;;;11.68;4.25;;;;;;;11.24;51.62;99834.34;7833699;31;38750;-79
2022/12/24 17:21:00;;;;;;;14.20;6.00;;;;;;;11.37;51.25;99843.06;7820180;31;36900;-78
2022/12/24 17:25:16;;;;;;;105.15;37.75;;;;;;;11.62;50.76;99844.91;7844933;31;38886;-77
2022/12/24 17:29:32;;;;;;;31.12;13.88;;;;;;;11.51;51.01;99843.31;7835440;31;40773;-76
2022/12/24 17:33:50;;;;;;;11.02;4.50;;;;;;;11.51;51.30;99849.59;7842276;31;38050;-75
2022/12/24 17:38:06;;;;;;;10.30;3.50;;;;;;;11.47;51.07;99853.97;7818735;31;37670;-80
2022/12/24 17:42:23;;;;;;;8.60;3.85;;;;;;;11.37;51.19;99867.62;7835334;31;39186;-82
2022/12/24 17:46:39;;;;;;;12.27;5.70;;;;;;;11.58;50.84;99877.41;7835333;31;40851;-84
2022/12/24 17:50:56;;;;;;;6.07;3.25;;;;;;;11.04;52.37;99878.03;7826275;31;40354;-82
2022/12/24 17:55:12;;;;;;;10.70;3.65;;;;;;;11.49;51.38;99879.09;7839707;31;36885;-80
2022/12/24 17:59:28;;;;;;;7.87;2.78;;;;;;;11.88;50.97;99892.06;7818168;31;40022;-81
2022/12/24 18:03:49;;;;;;;9.32;3.22;;;;;;;11.30;53.33;99888.91;7838400;31;40013;-81
2022/12/24 18:08:06;;;;;;;8.80;3.33;;;;;;;11.74;52.33;99896.50;7836177;31;38629;-78
2022/12/24 18:12:22;;;;;;;7.30;3.28;;;;;;;11.36;53.92;99910.47;7834333;31;36656;-79
2022/12/24 18:16:39;;;;;;;11.20;3.60;;;;;;;11.68;53.20;99908.53;7834663;31;38879;-79
2022/12/24 18:20:56;;;;;;;8.77;3.42;;;;;;;11.41;54.45;99912.38;7826932;31;39974;-79
2022/12/24 18:25:12;;;;;;;10.38;4.30;;;;;;;11.40;54.85;99918.94;7836262;31;37989;-81
2022/12/24 18:29:28;;;;;;;15.48;5.15;;;;;;;11.61;54.36;99901.44;7828119;31;36717;-82
2022/12/24 18:33:46;;;;;;;17.83;7.40;;;;;;;11.70;54.26;99906.34;7821914;31;39263;-81
2022/12/24 18:38:02;;;;;;;14.73;5.53;;;;;;;11.56;54.52;99904.19;7823667;31;40532;-77
2022/12/24 18:42:19;;;;;;;8.93;4.10;;;;;;;11.75;54.49;99909.06;7835710;31;38793;-81
2022/12/24 18:46:35;;;;;;;13.07;4.93;;;;;;;11.58;55.07;99912.91;7838438;31;37097;-81
2022/12/24 18:50:58;;;;;;;12.37;4.20;;;;;;;11.39;55.81;99922.78;7832427;31;39339;-80
2022/12/24 18:55:14;;;;;;;11.20;4.50;;;;;;;11.15;57.37;99927.97;7834542;31;40131;-78
2022/12/24 18:59:30;;;;;;;10.93;4.40;;;;;;;11.19;57.35;99939.94;7841501;31;37354;-78
2022/12/24 19:03:48;;;;;;;10.32;4.82;;;;;;;11.01;58.82;99939.41;7831201;31;37852;-78
2022/12/24 19:08:04;;;;;;;8.05;4.37;;;;;;;11.23;57.88;99939.16;7830314;31;39735;-78
2022/12/24 19:12:40;;;;;;;8.23;3.35;;;;;;;11.34;57.44;99952.78;7824371;31;41127;-79
2022/12/24 19:17:08;;;;;;;6.15;3.03;;;;;;;10.94;59.27;99966.12;7842104;31;38722;-79
2022/12/24 19:21:37;;;;;;;11.77;3.70;;;;;;;11.09;59.24;99982.53;7832659;31;37695;-79
2022/12/24 19:25:54;;;;;;;8.93;3.22;;;;;;;11.02;59.67;99972.94;7829574;31;39727;-78
2022/12/24 19:30:12;;;;;;;5.30;3.17;;;;;;;10.83;60.36;99976.19;7830956;31;40550;-76
2022/12/24 19:34:28;;;;;;;7.28;3.40;;;;;;;10.82;60.47;99982.72;7827650;31;38512;-78
2022/12/24 19:38:45;;;;;;;9.07;3.00;;;;;;;11.05;59.75;99983.31;7829958;31;36930;-79
2022/12/24 19:43:01;;;;;;;6.75;3.20;;;;;;;11.19;59.40;99989.06;7826901;31;39160;-79
2022/12/24 19:47:18;;;;;;;9.40;3.05;;;;;;;11.12;59.70;99994.78;7834818;31;41327;-80
2022/12/24 19:51:34;;;;;;;7.62;3.20;;;;;;;11.40;58.92;99998.09;7826098;31;37510;-81
2022/12/24 19:55:51;;;;;;;7.15;3.20;;;;;;;11.30;59.36;100006.28;7839583;31;37142;-78
2022/12/24 20:00:09;;;;;;;6.65;2.85;;;;;;;11.46;58.77;100006.00;7829715;31;39946;-80
2022/12/24 20:04:25;;;;;;;6.80;3.17;;;;;;;11.58;58.34;100007.66;7847052;31;40929;-79
2022/12/24 20:08:42;;;;;;;6.78;3.12;;;;;;;11.69;58.06;100012.03;7844715;31;38001;-77
2022/12/24 20:12:58;;;;;;;9.63;3.17;;;;;;;11.56;58.36;100013.41;7847241;31;37276;-77
2022/12/24 20:17:21;;;;;;;8.75;3.67;;;;;;;11.74;57.80;100019.41;7831813;31;39994;-82
2022/12/24 20:21:37;;;;;;;6.65;2.95;;;;;;;11.68;58.09;100029.53;7825743;31;40007;-79
2022/12/24 20:25:58;;;;;;;6.05;2.70;;;;;;;11.93;57.60;100041.53;7822157;31;37895;-79
2022/12/24 20:30:15;;;;;;;8.68;3.53;;;;;;;11.81;57.83;100044.53;7830397;31;35769;-80
2022/12/24 20:34:31;;;;;;;12.40;4.65;;;;;;;12.05;57.17;100046.72;7835115;31;39164;-80